Decoded Metar for KEVM (EVELETH MUNI in MN, USA) (IATA:EVM) | Meteo·Mobile Aviation Weather
aviador You're here:

KEVM Decoded Metar

EVELETH MUNI in MN, USA
Report Time2018-09-24 07:55:00
UTC Time2018-09-24 08:19:30
Flight Rules ifr IFR
Wind140° at 08 kt
W.Decomp.*RWY 14: 8.0 kt HW -0 kt LCW
RWY 09: 5.1 kt HW 6.1 kt RCW
W.Rank140° ranks 21
Current wind is above 140° avg. (6.4)
Visibility9999 m
Phenomena:N/A
Clouds:Overcast 005 Hf
Expected CloudBase > 400 ft AGL from Temp-Dew spread
Ceiling500 ft
Temp10°C (ISA -2)
Dew Point09°C (94% RH)
AAT6.9°C
QNH1015 hPa
Density Alt1,204 ft
Elevation1,381 ft
Report Wrong Elevation
Raw Report
KEVM 240755Z AUTO 14008KT 10SM OVC005 10/09 A2998 RMK AO2
T00950090=

Extra information for KEVM:More info

Metar Taf Metar & Taf Last 4 Metars F.Rules Stats Wind Profile Meteogram Temp Stats Airport Information Weather charts Add Link Nearby VenuesMetar ALERT Operation Metar Decoded Social comments

AIRNAV info for KEVM